Time;durP1;ratioP1;P1;durP2;ratioP2;P2;SDS_P1;SDS_P2;PMS_P1;PMS_P2;Temp;Humidity;BMP_temperature;BMP_pressure;BME280_temperature;BME280_humidity;BME280_pressure;Samples;Min_cycle;Max_cycle;Signal;HPM_P1;HPM_P2
2023/08/18 00:02:34;;;;;;;13.70;9.90;;;;;;;23.21;68.70;100584.98;130590;1262;108229;-75
2023/08/18 00:05:39;;;;;;;12.30;9.70;;;;;;;23.18;69.52;100610.00;130503;1262;106935;-75
2023/08/18 00:08:45;;;;;;;10.20;6.30;;;;;;;23.07;70.80;100609.81;130492;1262;108425;-76
2023/08/18 00:11:50;;;;;;;7.90;5.00;;;;;;;22.87;70.59;100607.71;130558;1269;106864;-75
2023/08/18 00:14:56;;;;;;;7.10;5.10;;;;;;;22.72;70.99;100596.49;130560;1257;107145;-75
2023/08/18 00:18:02;;;;;;;8.70;6.20;;;;;;;22.62;71.56;100630.02;130578;1262;108512;-75
2023/08/18 00:21:08;;;;;;;8.90;7.50;;;;;;;22.46;72.76;100649.79;130520;1262;107683;-75
2023/08/18 00:24:13;;;;;;;9.20;7.40;;;;;;;22.24;73.75;100621.42;130487;1260;107502;-75
2023/08/18 00:27:19;;;;;;;8.30;7.10;;;;;;;22.17;73.43;100638.34;130430;1260;106759;-75
2023/08/18 00:30:25;;;;;;;9.80;7.50;;;;;;;22.19;73.71;100636.50;130488;1261;105896;-75
2023/08/18 00:33:30;;;;;;;11.20;7.70;;;;;;;22.18;74.42;100582.36;130842;1260;107843;-75
2023/08/18 00:36:36;;;;;;;9.80;8.50;;;;;;;22.04;74.98;100559.98;130734;1268;106555;-75
2023/08/18 00:39:42;;;;;;;9.70;8.50;;;;;;;21.86;77.00;100550.15;130603;1260;107621;-75
2023/08/18 00:42:47;;;;;;;11.20;7.60;;;;;;;21.70;76.33;100557.97;130363;1271;107859;-75
2023/08/18 00:45:56;;;;;;;8.70;7.60;;;;;;;21.78;76.08;100552.98;130542;1260;107688;-75
2023/08/18 00:49:05;;;;;;;10.80;8.10;;;;;;;21.78;77.32;100538.52;130603;1261;107226;-75
2023/08/18 00:52:12;;;;;;;11.50;8.90;;;;;;;21.53;79.74;100518.05;123232;1260;108531;-75
2023/08/18 00:55:17;;;;;;;8.40;7.30;;;;;;;21.35;79.44;100513.73;130506;1262;99138;-75
2023/08/18 00:58:24;;;;;;;8.90;7.20;;;;;;;21.40;78.28;100506.04;130435;1261;99068;-75
2023/08/18 01:01:30;;;;;;;8.60;7.60;;;;;;;21.50;78.01;100500.23;130500;1268;98741;-75
2023/08/18 01:04:36;;;;;;;10.90;8.10;;;;;;;21.50;80.01;100492.84;130635;1262;98761;-76
2023/08/18 01:07:42;;;;;;;8.90;8.10;;;;;;;21.32;79.40;100499.95;130459;1262;97959;-76
2023/08/18 01:10:58;;;;;;;8.50;7.20;;;;;;;21.30;78.98;100516.66;130515;1261;99148;-75
2023/08/18 01:14:15;;;;;;;7.10;6.30;;;;;;;21.28;79.59;100523.21;130499;1270;99177;-76
2023/08/18 01:17:28;;;;;;;8.40;6.90;;;;;;;21.26;79.12;100524.70;130567;1260;99144;-75
2023/08/18 01:20:35;;;;;;;10.70;8.00;;;;;;;21.22;81.54;100528.31;130556;1260;99132;-75
2023/08/18 01:23:41;;;;;;;8.80;7.50;;;;;;;21.01;81.43;100536.00;130499;1260;99116;-75
2023/08/18 01:26:47;;;;;;;9.80;7.30;;;;;;;20.81;83.18;100547.46;130478;1270;99138;-76
2023/08/18 01:29:52;;;;;;;8.20;6.40;;;;;;;20.67;83.99;100560.31;130528;1268;99027;-76
2023/08/18 01:33:05;;;;;;;8.60;5.90;;;;;;;20.63;83.20;100577.34;130502;1268;98072;-76
2023/08/18 01:36:18;;;;;;;7.10;6.00;;;;;;;20.70;81.77;100597.89;130614;1261;98039;-76
2023/08/18 01:39:26;;;;;;;8.10;5.80;;;;;;;20.80;83.08;100601.08;130404;1267;97966;-76
2023/08/18 01:42:33;;;;;;;7.10;5.20;;;;;;;20.82;82.20;100611.84;130552;1260;98036;-76
2023/08/18 01:45:39;;;;;;;6.20;5.60;;;;;;;20.83;81.81;100613.68;130481;1263;99109;-76
2023/08/18 01:48:44;;;;;;;7.30;5.80;;;;;;;20.83;82.03;100613.30;130786;1260;98026;-77
2023/08/18 01:51:50;;;;;;;7.70;6.40;;;;;;;20.88;82.72;100610.09;130551;1257;98528;-77
2023/08/18 01:54:56;;;;;;;7.60;6.80;;;;;;;20.84;82.65;100602.95;130530;1261;97948;-76
2023/08/18 01:58:01;;;;;;;8.90;6.50;;;;;;;20.78;82.74;100601.09;130533;1271;98024;-77
2023/08/18 02:01:07;;;;;;;8.50;6.20;;;;;;;20.73;83.19;100607.27;130527;1261;98015;-76
2023/08/18 02:04:13;;;;;;;7.50;6.70;;;;;;;20.75;82.89;100599.13;130551;1269;98089;-76
2023/08/18 02:07:18;;;;;;;8.60;7.00;;;;;;;20.77;83.31;100585.49;130481;1268;98076;-77
2023/08/18 02:10:24;;;;;;;8.10;7.00;;;;;;;20.75;83.46;100580.61;130422;1270;99168;-75
2023/08/18 02:13:29;;;;;;;6.80;6.10;;;;;;;20.70;86.26;100588.33;130538;1258;98099;-76
2023/08/18 02:16:35;;;;;;;6.90;5.70;;;;;;;20.63;84.55;100581.18;130384;1271;98020;-76
2023/08/18 02:19:41;;;;;;;7.50;6.20;;;;;;;20.56;85.85;100573.55;130591;1269;98028;-76
2023/08/18 02:22:46;;;;;;;8.20;6.30;;;;;;;20.53;85.03;100572.19;130502;1260;99138;-77
2023/08/18 02:25:52;;;;;;;6.40;5.80;;;;;;;20.55;84.95;100563.15;130619;1260;99052;-77
2023/08/18 02:28:58;;;;;;;7.10;5.50;;;;;;;20.56;85.06;100563.14;130640;1270;97948;-78
2023/08/18 02:32:04;;;;;;;6.70;5.40;;;;;;;20.61;84.85;100567.69;130595;1260;98770;-81
2023/08/18 02:35:10;;;;;;;7.70;5.80;;;;;;;20.61;85.23;100566.48;130457;1258;99136;-80
2023/08/18 02:38:16;;;;;;;7.00;6.00;;;;;;;20.63;85.02;100570.16;130788;1261;98066;-80
2023/08/18 02:41:23;;;;;;;6.90;6.20;;;;;;;20.68;84.62;100572.11;130566;1261;98021;-79
2023/08/18 02:44:28;;;;;;;7.50;5.50;;;;;;;20.73;84.65;100565.21;130535;1261;98051;-80
2023/08/18 02:47:34;;;;;;;6.30;5.50;;;;;;;20.76;84.61;100556.36;130379;1260;98038;-79
2023/08/18 02:50:40;;;;;;;6.60;5.90;;;;;;;20.71;84.84;100545.98;130574;1257;98008;-79
2023/08/18 02:53:48;;;;;;;6.20;5.60;;;;;;;20.64;85.07;100540.13;130577;1260;97995;-79
2023/08/18 02:56:54;;;;;;;8.40;6.10;;;;;;;20.59;84.78;100537.61;130572;1261;98650;-79
2023/08/18 03:00:00;;;;;;;6.00;5.40;;;;;;;20.63;84.91;100532.42;130381;1257;99214;-79
2023/08/18 03:03:06;;;;;;;6.20;5.50;;;;;;;20.65;84.68;100531.54;130533;1260;99167;-80
2023/08/18 03:06:11;;;;;;;5.40;4.90;;;;;;;20.70;84.80;100525.35;130508;1260;97980;-79
2023/08/18 03:09:17;;;;;;;7.90;6.20;;;;;;;20.78;84.75;100525.58;130422;1263;99264;-79
2023/08/18 03:12:23;;;;;;;8.20;6.60;;;;;;;20.89;84.68;100523.73;130456;1263;98014;-80
2023/08/18 03:15:28;;;;;;;8.20;6.40;;;;;;;20.87;84.72;100510.93;130591;1266;99144;-79
2023/08/18 03:18:34;;;;;;;7.20;6.50;;;;;;;20.77;84.80;100511.98;130578;1260;97976;-79
2023/08/18 03:21:42;;;;;;;6.70;6.00;;;;;;;20.77;84.92;100524.23;130408;1261;99258;-79
2023/08/18 03:24:48;;;;;;;6.70;5.00;;;;;;;20.83;85.20;100523.30;130525;1269;98723;-79
2023/08/18 03:27:54;;;;;;;5.30;4.80;;;;;;;20.84;84.94;100524.25;130469;1261;99034;-80
2023/08/18 03:31:04;;;;;;;5.60;5.00;;;;;;;20.83;84.86;100523.59;130418;1263;98078;-79
2023/08/18 03:34:10;;;;;;;6.00;5.30;;;;;;;20.82;84.73;100519.68;130571;1267;99011;-79
2023/08/18 03:37:16;;;;;;;6.10;5.50;;;;;;;20.74;84.84;100514.73;130418;1263;98071;-79
2023/08/18 03:40:22;;;;;;;6.00;5.30;;;;;;;20.74;84.93;100510.77;130498;1261;98744;-79
2023/08/18 03:43:27;;;;;;;7.40;5.20;;;;;;;20.72;84.81;100515.54;130591;1267;98019;-79
2023/08/18 03:46:33;;;;;;;7.90;5.90;;;;;;;20.68;84.95;100516.84;130515;1261;98725;-80
2023/08/18 03:49:39;;;;;;;6.60;5.40;;;;;;;20.65;84.91;100515.81;130571;1258;99167;-80
2023/08/18 03:52:45;;;;;;;5.60;5.00;;;;;;;20.54;84.94;100515.68;130454;1260;98758;-79
2023/08/18 03:55:56;;;;;;;6.70;4.80;;;;;;;20.45;85.65;100513.65;130442;1264;98005;-80
2023/08/18 03:59:02;;;;;;;7.60;5.00;;;;;;;20.46;85.40;100515.70;130634;1265;97980;-80
2023/08/18 04:02:07;;;;;;;6.10;5.50;;;;;;;20.55;85.37;100523.83;130744;1261;97958;-80
2023/08/18 04:05:13;;;;;;;5.70;4.80;;;;;;;20.69;85.28;100523.81;130493;1263;97973;-80
2023/08/18 04:08:19;;;;;;;5.50;5.00;;;;;;;20.78;85.21;100521.52;130639;1262;98012;-79
2023/08/18 04:11:25;;;;;;;5.30;4.40;;;;;;;20.84;85.05;100525.84;130573;1269;97970;-80
2023/08/18 04:14:31;;;;;;;5.20;4.70;;;;;;;20.92;84.99;100519.06;130573;1261;98757;-80
2023/08/18 04:17:38;;;;;;;5.80;5.10;;;;;;;20.96;84.94;100513.77;130577;1257;98323;-80
2023/08/18 04:20:43;;;;;;;5.70;5.20;;;;;;;20.98;84.83;100503.92;130445;1260;98735;-80
2023/08/18 04:23:49;;;;;;;5.30;4.80;;;;;;;20.81;85.31;100495.81;130659;1257;97947;-80
2023/08/18 04:26:59;;;;;;;5.50;4.70;;;;;;;20.73;85.27;100487.54;130752;1269;99102;-80
2023/08/18 04:30:10;;;;;;;5.20;4.70;;;;;;;20.78;85.18;100484.48;130552;1264;98854;-80
2023/08/18 04:33:17;;;;;;;5.30;4.80;;;;;;;20.87;85.20;100479.64;130629;1257;97973;-80
2023/08/18 04:36:22;;;;;;;5.80;4.90;;;;;;;20.88;85.13;100472.69;130485;1270;97976;-80
2023/08/18 04:39:29;;;;;;;4.80;4.40;;;;;;;20.83;85.17;100469.61;130928;1260;98173;-80
2023/08/18 04:42:35;;;;;;;4.50;3.90;;;;;;;20.91;85.26;100466.94;130563;1268;98737;-80
2023/08/18 04:45:41;;;;;;;4.40;4.00;;;;;;;21.02;85.27;100470.13;130657;1261;98449;-80
2023/08/18 04:48:49;;;;;;;4.80;4.40;;;;;;;21.11;85.12;100467.95;130446;1258;99177;-80
2023/08/18 04:51:55;;;;;;;6.30;4.30;;;;;;;21.21;85.23;100477.38;130493;1261;98007;-79
2023/08/18 04:55:00;;;;;;;5.30;4.60;;;;;;;21.40;84.96;100482.98;130479;1261;97974;-80
2023/08/18 04:58:09;;;;;;;4.50;4.10;;;;;;;21.46;84.71;100478.20;130439;1264;98041;-80
2023/08/18 05:01:14;;;;;;;4.50;4.10;;;;;;;21.50;84.72;100478.71;130560;1260;98662;-80
2023/08/18 05:04:20;;;;;;;6.40;4.80;;;;;;;21.58;84.68;100470.55;130571;1261;99254;-80
2023/08/18 05:07:26;;;;;;;6.40;5.20;;;;;;;21.55;84.63;100461.73;130433;1260;99191;-80
2023/08/18 05:10:32;;;;;;;6.60;5.70;;;;;;;21.54;84.90;100456.59;130463;1263;98856;-78
2023/08/18 05:13:42;;;;;;;5.40;4.90;;;;;;;21.71;85.27;100456.25;130701;1261;98025;-78
2023/08/18 05:16:47;;;;;;;6.20;4.60;;;;;;;21.98;85.06;100449.09;130612;1256;98874;-80
2023/08/18 05:19:53;;;;;;;4.80;4.40;;;;;;;22.21;85.04;100440.41;130491;1262;98291;-81
2023/08/18 05:22:58;;;;;;;4.60;4.20;;;;;;;22.53;84.52;100440.67;130704;1260;98774;-79
2023/08/18 05:26:04;;;;;;;4.60;4.20;;;;;;;22.94;83.87;100441.43;130587;1259;99144;-79
2023/08/18 05:29:10;;;;;;;4.20;3.80;;;;;;;23.20;82.95;100442.77;130583;1261;98120;-79
2023/08/18 05:32:16;;;;;;;5.40;4.00;;;;;;;23.48;82.92;100447.13;130557;1259;98141;-80
2023/08/18 05:35:21;;;;;;;4.60;4.20;;;;;;;23.78;82.67;100442.11;130540;1260;99160;-80
2023/08/18 05:38:27;;;;;;;4.60;3.80;;;;;;;23.96;82.04;100441.45;130548;1269;98100;-79
2023/08/18 05:41:35;;;;;;;7.60;4.70;;;;;;;24.27;81.83;100440.16;130619;1258;97949;-80
2023/08/18 05:44:42;;;;;;;4.20;3.80;;;;;;;24.41;80.55;100437.54;130511;1260;99130;-80
2023/08/18 05:47:47;;;;;;;4.80;3.80;;;;;;;24.52;81.10;100437.89;130533;1259;99154;-80
2023/08/18 05:50:53;;;;;;;4.00;3.70;;;;;;;24.73;80.59;100440.77;130571;1261;98062;-79
2023/08/18 05:53:58;;;;;;;3.60;3.30;;;;;;;24.85;80.09;100441.90;130479;1257;99124;-80
2023/08/18 05:57:04;;;;;;;4.40;3.40;;;;;;;24.91;79.68;100441.36;130538;1260;98037;-80
2023/08/18 06:00:13;;;;;;;4.30;3.70;;;;;;;25.02;79.49;100442.01;130677;1256;99008;-81
2023/08/18 06:03:19;;;;;;;4.20;3.80;;;;;;;25.15;79.05;100448.39;130538;1260;99131;-80
2023/08/18 06:06:25;;;;;;;3.90;3.50;;;;;;;25.27;78.83;100443.35;130559;1260;98060;-80
2023/08/18 06:09:30;;;;;;;3.80;3.40;;;;;;;25.39;78.53;100437.95;130450;1260;97963;-80
2023/08/18 06:12:37;;;;;;;4.50;3.70;;;;;;;25.49;78.07;100435.38;130496;1260;98983;-80
2023/08/18 06:15:43;;;;;;;4.40;3.80;;;;;;;25.55;77.67;100428.80;130559;1257;98069;-80
2023/08/18 06:18:49;;;;;;;4.20;3.80;;;;;;;25.59;77.31;100427.99;130531;1257;97973;-80
2023/08/18 06:21:55;;;;;;;3.80;3.50;;;;;;;25.63;77.10;100430.52;130471;1260;98437;-80
2023/08/18 06:25:00;;;;;;;3.80;3.50;;;;;;;25.68;76.90;100426.60;130462;1260;98164;-82
2023/08/18 06:28:07;;;;;;;4.30;3.80;;;;;;;25.71;76.87;100424.41;130662;1260;98051;-82
2023/08/18 06:31:13;;;;;;;4.70;3.60;;;;;;;25.73;76.51;100422.21;130613;1255;99049;-80
2023/08/18 06:34:18;;;;;;;4.40;3.70;;;;;;;25.75;76.21;100423.17;130565;1261;99205;-80
2023/08/18 06:37:25;;;;;;;5.30;4.50;;;;;;;25.79;76.23;100422.53;130487;1260;99164;-80
2023/08/18 06:40:30;;;;;;;4.50;3.80;;;;;;;25.77;76.06;100421.94;130532;1260;98063;-80
2023/08/18 06:43:36;;;;;;;4.30;3.80;;;;;;;25.79;75.98;100420.45;130574;1258;98288;-79
2023/08/18 06:46:42;;;;;;;4.70;4.30;;;;;;;25.85;75.59;100421.95;130527;1260;99132;-79
2023/08/18 06:49:47;;;;;;;6.60;4.70;;;;;;;25.89;75.37;100420.42;130536;1260;99127;-79
2023/08/18 06:52:53;;;;;;;5.60;4.20;;;;;;;25.88;75.45;100421.50;130475;1260;97986;-80
2023/08/18 06:55:59;;;;;;;4.60;4.00;;;;;;;25.87;75.22;100422.02;130544;1261;97956;-79
2023/08/18 06:59:05;;;;;;;7.10;4.90;;;;;;;25.93;75.06;100422.69;130493;1256;99196;-79
2023/08/18 07:02:10;;;;;;;6.70;5.40;;;;;;;25.96;76.19;100417.70;130656;1255;98040;-79
2023/08/18 07:05:17;;;;;;;6.80;5.50;;;;;;;25.88;76.41;100420.74;130519;1261;98060;-79
2023/08/18 07:08:24;;;;;;;7.70;5.60;;;;;;;25.80;76.39;100427.99;130520;1260;98038;-81
2023/08/18 07:11:30;;;;;;;6.30;5.70;;;;;;;25.74;76.58;100431.30;130516;1263;99089;-79
2023/08/18 07:14:35;;;;;;;7.10;5.60;;;;;;;25.65;76.53;100432.67;130477;1261;97970;-79
2023/08/18 07:17:41;;;;;;;7.30;5.20;;;;;;;25.63;76.85;100432.22;130535;1256;98718;-79
2023/08/18 07:20:48;;;;;;;5.50;5.00;;;;;;;25.71;77.12;100434.54;130567;1255;98719;-80
2023/08/18 07:24:31;;;;;;;6.20;5.60;;;;;;;25.83;76.50;100428.05;130496;1258;98720;-80
2023/08/18 07:27:40;;;;;;;5.80;5.30;;;;;;;25.92;75.83;100429.20;130421;1263;97964;-79
2023/08/18 07:30:46;;;;;;;5.80;5.30;;;;;;;25.98;75.75;100431.47;130486;1260;98770;-81
2023/08/18 07:33:52;;;;;;;5.60;5.10;;;;;;;25.98;75.32;100426.94;130535;1260;98032;-80
2023/08/18 07:36:58;;;;;;;6.10;5.50;;;;;;;26.00;74.87;100428.22;130522;1260;98007;-79
2023/08/18 07:40:09;;;;;;;7.40;5.40;;;;;;;26.04;74.49;100426.25;130475;1261;97999;-79
2023/08/18 07:43:14;;;;;;;;;;;;;;;26.06;74.39;100421.96;130560;1259;97980;-79
2023/08/18 07:46:20;;;;;;;5.80;5.20;;;;;;;26.11;74.33;100424.17;130532;1260;98043;-80
2023/08/18 07:49:26;;;;;;;5.40;4.90;;;;;;;26.14;74.09;100421.67;130622;1257;98024;-80
2023/08/18 07:52:32;;;;;;;5.70;5.10;;;;;;;26.19;74.13;100421.36;130540;1256;98053;-79
2023/08/18 07:55:38;;;;;;;5.60;4.80;;;;;;;26.29;73.72;100421.60;130550;1260;99240;-79
2023/08/18 07:58:44;;;;;;;5.80;5.30;;;;;;;26.37;73.51;100423.69;130527;1256;98015;-79
2023/08/18 08:01:49;;;;;;;5.60;4.80;;;;;;;26.44;72.72;100423.84;130506;1260;97969;-79
2023/08/18 08:04:55;;;;;;;5.30;4.80;;;;;;;26.47;72.58;100420.80;130498;1261;98053;-80
2023/08/18 08:08:00;;;;;;;6.10;4.90;;;;;;;26.48;71.02;100427.21;130556;1262;97998;-80
2023/08/18 08:11:06;;;;;;;6.40;5.10;;;;;;;26.49;69.95;100431.33;130536;1256;97959;-79
2023/08/18 08:14:11;;;;;;;5.30;4.80;;;;;;;26.51;70.33;100432.63;130551;1261;98078;-79
2023/08/18 08:17:17;;;;;;;5.50;5.00;;;;;;;26.60;70.28;100434.66;130583;1261;97989;-79
2023/08/18 08:20:23;;;;;;;5.80;5.30;;;;;;;26.68;69.86;100440.23;130564;1260;97957;-80
2023/08/18 08:23:29;;;;;;;5.80;5.20;;;;;;;26.65;69.10;100446.84;130538;1261;97946;-79
2023/08/18 08:26:35;;;;;;;5.40;4.90;;;;;;;26.63;69.58;100448.98;130554;1260;97971;-79
2023/08/18 08:29:41;;;;;;;6.00;5.40;;;;;;;26.67;69.63;100454.90;130570;1261;99107;-79
2023/08/18 08:32:46;;;;;;;5.30;4.90;;;;;;;26.78;68.71;100455.41;130548;1260;99109;-79
2023/08/18 08:35:53;;;;;;;6.00;5.50;;;;;;;26.88;68.37;100460.08;130644;1256;98653;-78
2023/08/18 08:38:58;;;;;;;6.20;5.30;;;;;;;26.98;68.33;100459.86;130540;1256;98024;-78
2023/08/18 08:42:05;;;;;;;7.00;5.30;;;;;;;27.10;67.93;100460.96;130547;1256;97989;-78
2023/08/18 08:45:11;;;;;;;5.40;5.00;;;;;;;27.23;68.60;100460.79;130550;1260;97971;-79
2023/08/18 08:48:19;;;;;;;5.90;5.40;;;;;;;27.37;68.48;100454.85;130540;1255;97959;-79
2023/08/18 08:51:32;;;;;;;6.10;5.50;;;;;;;27.47;67.88;100457.52;130623;1255;97989;-78
2023/08/18 08:54:40;;;;;;;6.20;5.60;;;;;;;27.58;68.41;100456.45;130500;1260;98785;-78
2023/08/18 08:57:46;;;;;;;6.70;5.90;;;;;;;27.64;67.54;100455.46;130531;1260;97983;-78
2023/08/18 09:00:51;;;;;;;6.00;5.50;;;;;;;27.67;67.40;100451.98;130515;1260;98032;-78
2023/08/18 09:03:59;;;;;;;6.20;5.60;;;;;;;27.69;66.35;100450.23;130594;1260;97951;-79
2023/08/18 09:07:05;;;;;;;6.40;5.70;;;;;;;27.70;67.14;100447.02;130573;1262;98642;-78
2023/08/18 09:10:11;;;;;;;6.20;5.40;;;;;;;27.77;66.63;100449.86;130595;1260;98679;-78
2023/08/18 09:13:17;;;;;;;5.90;5.40;;;;;;;27.80;66.42;100445.17;130615;1262;99112;-78
2023/08/18 09:16:22;;;;;;;6.20;5.70;;;;;;;27.86;66.12;100445.20;130577;1260;98057;-79
2023/08/18 09:19:28;;;;;;;6.10;5.50;;;;;;;27.90;64.86;100440.28;130582;1260;98861;-79
2023/08/18 09:22:34;;;;;;;6.10;5.50;;;;;;;27.94;65.50;100438.66;130525;1261;97973;-78
2023/08/18 09:25:40;;;;;;;6.00;5.50;;;;;;;27.98;64.72;100433.38;130571;1261;98735;-79
2023/08/18 09:28:45;;;;;;;6.30;5.50;;;;;;;28.02;64.61;100429.98;130529;1256;98630;-78
2023/08/18 09:31:52;;;;;;;5.60;5.10;;;;;;;28.07;64.43;100426.52;130479;1257;99033;-80
2023/08/18 09:34:57;;;;;;;5.60;5.10;;;;;;;28.16;64.70;100419.59;130560;1259;99138;-78
2023/08/18 09:38:04;;;;;;;5.70;5.20;;;;;;;28.26;64.47;100412.23;130521;1261;97967;-77
2023/08/18 09:41:11;;;;;;;8.60;5.50;;;;;;;28.36;64.32;100410.14;130636;1260;98803;-78
2023/08/18 09:44:17;;;;;;;5.80;5.00;;;;;;;28.45;63.94;100409.35;130595;1260;99269;-78
2023/08/18 09:47:25;;;;;;;6.40;5.00;;;;;;;28.49;62.65;100408.88;130540;1260;98388;-78
2023/08/18 09:50:33;;;;;;;5.70;5.20;;;;;;;28.50;62.02;100412.66;130559;1260;97938;-78
2023/08/18 09:53:42;;;;;;;4.70;4.30;;;;;;;28.53;62.63;100406.72;130542;1260;99075;-78
2023/08/18 09:56:50;;;;;;;5.40;4.80;;;;;;;28.61;61.72;100415.32;130464;1261;99167;-78
2023/08/18 09:59:58;;;;;;;5.00;4.60;;;;;;;28.62;61.11;100412.52;130469;1260;97972;-80
2023/08/18 10:03:07;;;;;;;5.90;5.00;;;;;;;28.68;61.29;100416.88;130522;1261;99164;-81
2023/08/18 10:06:13;;;;;;;5.10;4.70;;;;;;;28.80;61.59;100417.89;130588;1261;99052;-77
2023/08/18 10:09:20;;;;;;;5.50;4.80;;;;;;;28.90;60.79;100418.47;130515;1262;98684;-78
2023/08/18 10:12:26;;;;;;;5.10;4.70;;;;;;;28.98;60.81;100418.65;130445;1262;98018;-77
2023/08/18 10:15:32;;;;;;;5.60;5.10;;;;;;;29.13;60.44;100422.65;130481;1261;98043;-78
2023/08/18 10:18:38;;;;;;;5.20;4.70;;;;;;;29.22;59.01;100424.42;130491;1260;98021;-78
2023/08/18 10:21:44;;;;;;;5.60;4.70;;;;;;;29.27;58.49;100426.26;130428;1262;98628;-78
2023/08/18 10:24:52;;;;;;;5.20;4.80;;;;;;;29.37;58.60;100427.73;130456;1256;99138;-78
2023/08/18 10:27:59;;;;;;;4.80;4.30;;;;;;;29.46;58.04;100427.36;130455;1260;99167;-78
2023/08/18 10:31:10;;;;;;;4.90;4.50;;;;;;;29.53;58.02;100424.38;130474;1261;99234;-77
2023/08/18 10:34:22;;;;;;;4.90;4.50;;;;;;;29.60;57.94;100422.52;130581;1261;98764;-81
2023/08/18 10:37:29;;;;;;;5.20;4.70;;;;;;;29.73;58.41;100417.23;130557;1260;98052;-78
2023/08/18 10:40:36;;;;;;;4.90;4.40;;;;;;;29.90;58.35;100412.87;130507;1255;98057;-80
2023/08/18 10:43:51;;;;;;;6.70;4.80;;;;;;;30.01;57.89;100410.42;130516;1261;97957;-78
2023/08/18 10:46:58;;;;;;;5.00;4.50;;;;;;;30.02;57.29;100412.02;130546;1271;99136;-79
2023/08/18 10:50:05;;;;;;;5.20;4.80;;;;;;;29.97;56.96;100411.38;130493;1261;97952;-80
2023/08/18 10:53:12;;;;;;;5.40;4.50;;;;;;;29.89;57.07;100405.40;130475;1260;97960;-78
2023/08/18 10:56:18;;;;;;;6.90;4.90;;;;;;;29.92;57.13;100409.20;130571;1259;97967;-80
2023/08/18 10:59:23;;;;;;;5.30;4.90;;;;;;;29.93;56.87;100408.02;130469;1260;97953;-78
2023/08/18 11:02:30;;;;;;;6.00;5.40;;;;;;;29.91;57.03;100408.53;130580;1261;97927;-80
2023/08/18 11:05:36;;;;;;;6.60;5.90;;;;;;;29.89;56.58;100402.10;130526;1254;98033;-80
2023/08/18 11:08:42;;;;;;;6.50;5.50;;;;;;;29.89;56.71;100401.60;130623;1259;98027;-78
2023/08/18 11:11:48;;;;;;;7.20;6.00;;;;;;;29.93;57.20;100397.30;130560;1259;99100;-78
2023/08/18 11:14:53;;;;;;;7.40;6.70;;;;;;;30.03;56.69;100403.04;130579;1258;97990;-78
2023/08/18 11:17:59;;;;;;;7.30;6.60;;;;;;;30.09;56.36;100401.83;130452;1259;98015;-78
2023/08/18 11:21:05;;;;;;;7.90;7.10;;;;;;;30.12;56.59;100403.58;130634;1259;98743;-78
2023/08/18 11:24:11;;;;;;;7.40;6.60;;;;;;;30.18;56.43;100406.02;130551;1259;98744;-78
2023/08/18 11:27:17;;;;;;;7.70;6.90;;;;;;;30.14;56.06;100417.38;130794;1254;98006;-78
2023/08/18 11:30:23;;;;;;;7.90;6.50;;;;;;;30.06;56.46;100428.57;130532;1259;98007;-78
2023/08/18 11:33:28;;;;;;;6.70;6.10;;;;;;;29.65;57.09;100435.92;130603;1259;98736;-79
2023/08/18 11:36:34;;;;;;;8.30;5.60;;;;;;;28.93;57.45;100431.11;130558;1254;99033;-79
2023/08/18 11:39:40;;;;;;;7.00;5.80;;;;;;;28.16;58.40;100428.69;130533;1255;99027;-79
2023/08/18 11:42:47;;;;;;;6.50;5.90;;;;;;;27.58;58.81;100441.05;130535;1254;98336;-79
2023/08/18 11:45:55;;;;;;;6.50;5.90;;;;;;;27.04;59.61;100454.71;130565;1259;99194;-79
2023/08/18 11:49:02;;;;;;;6.60;5.90;;;;;;;26.69;60.33;100463.30;130593;1256;98016;-78
2023/08/18 11:52:08;;;;;;;6.40;5.80;;;;;;;26.52;60.40;100468.75;130783;1259;97958;-78
2023/08/18 11:55:14;;;;;;;6.90;6.20;;;;;;;26.43;60.78;100467.32;130602;1259;99151;-77
2023/08/18 11:58:24;;;;;;;6.10;5.60;;;;;;;26.23;60.98;100481.89;130576;1254;99055;-78
2023/08/18 12:01:36;;;;;;;6.90;6.10;;;;;;;26.10;61.41;100475.94;130548;1254;98461;-79
2023/08/18 12:04:43;;;;;;;6.90;6.30;;;;;;;25.93;61.72;100467.86;130713;1260;98189;-79
2023/08/18 12:07:50;;;;;;;7.10;6.40;;;;;;;25.67;62.70;100466.11;130601;1259;97951;-78
2023/08/18 12:10:57;;;;;;;6.00;5.50;;;;;;;25.35;63.09;100452.63;130582;1260;97957;-80
2023/08/18 12:14:04;;;;;;;6.20;5.60;;;;;;;25.16;63.91;100442.36;130624;1260;99106;-78
2023/08/18 12:17:10;;;;;;;7.40;6.30;;;;;;;25.08;64.85;100431.61;130519;1260;97973;-78
2023/08/18 12:20:18;;;;;;;7.30;6.40;;;;;;;24.80;65.77;100425.47;130514;1262;97948;-78
2023/08/18 12:23:24;;;;;;;6.60;6.00;;;;;;;24.59;66.55;100433.56;130598;1260;99035;-78
2023/08/18 12:26:30;;;;;;;6.40;5.80;;;;;;;24.73;65.35;100451.83;130559;1261;98747;-77
2023/08/18 12:29:35;;;;;;;6.80;6.10;;;;;;;25.00;65.22;100467.84;130597;1260;97938;-80
2023/08/18 12:32:41;;;;;;;6.60;5.90;;;;;;;25.09;65.56;100471.67;130558;1260;98033;-79
2023/08/18 12:35:46;;;;;;;6.60;6.00;;;;;;;25.01;65.91;100469.89;130575;1255;98757;-79
2023/08/18 12:38:52;;;;;;;6.80;6.00;;;;;;;24.75;66.95;100473.36;130561;1255;99081;-79
2023/08/18 12:41:58;;;;;;;6.10;5.50;;;;;;;24.53;66.74;100477.58;130497;1260;99151;-78
2023/08/18 12:45:04;;;;;;;5.40;4.90;;;;;;;24.54;66.95;100491.58;130529;1262;98030;-78
2023/08/18 12:48:09;;;;;;;6.40;5.40;;;;;;;24.74;66.51;100533.80;130554;1256;97949;-78
2023/08/18 12:51:17;;;;;;;6.10;5.60;;;;;;;24.82;66.26;100535.68;130398;1260;258000;-78
2023/08/18 12:54:23;;;;;;;6.20;5.60;;;;;;;24.82;66.17;100526.91;130630;1256;97960;-79
2023/08/18 12:57:29;;;;;;;6.00;5.50;;;;;;;24.62;66.49;100527.00;130600;1261;98063;-78
2023/08/18 13:00:34;;;;;;;5.60;4.70;;;;;;;24.46;66.41;100532.12;130560;1260;99151;-79
2023/08/18 13:03:40;;;;;;;4.40;3.80;;;;;;;24.34;65.02;100536.76;130522;1257;99056;-78
2023/08/18 13:06:45;;;;;;;3.00;2.80;;;;;;;24.24;64.29;100526.27;130579;1256;99053;-78
2023/08/18 13:10:04;;;;;;;3.10;2.50;;;;;;;24.18;63.98;100538.08;130740;1256;97966;-79
2023/08/18 13:13:11;;;;;;;2.50;2.30;;;;;;;24.13;63.66;100552.03;130600;1261;98135;-78
2023/08/18 13:16:17;;;;;;;2.20;2.00;;;;;;;24.01;63.19;100548.33;130544;1261;98633;-79
2023/08/18 13:19:23;;;;;;;2.20;1.90;;;;;;;23.85;63.19;100535.91;130538;1260;98010;-78
2023/08/18 13:22:28;;;;;;;2.50;2.30;;;;;;;23.67;63.50;100561.47;130566;1256;98051;-78
2023/08/18 13:25:35;;;;;;;2.60;2.40;;;;;;;23.46;63.77;100578.00;130545;1260;99170;-78
2023/08/18 13:28:41;;;;;;;2.90;2.20;;;;;;;23.20;63.95;100589.44;130487;1262;98736;-78
2023/08/18 13:31:48;;;;;;;3.40;2.20;;;;;;;23.05;64.33;100592.27;130572;1260;99167;-79
2023/08/18 13:34:53;;;;;;;3.00;2.40;;;;;;;22.95;65.26;100573.46;130541;1259;98057;-80
2023/08/18 13:37:59;;;;;;;3.00;2.30;;;;;;;22.87;66.07;100574.89;130535;1259;99103;-78
2023/08/18 13:41:04;;;;;;;2.80;2.50;;;;;;;22.84;66.64;100564.57;130602;1261;99141;-78
2023/08/18 13:44:10;;;;;;;4.70;2.90;;;;;;;22.78;66.84;100557.38;130624;1256;97973;-78
2023/08/18 13:47:16;;;;;;;3.60;2.50;;;;;;;22.74;67.32;100566.80;130521;1260;97986;-78
2023/08/18 13:50:22;;;;;;;4.50;3.20;;;;;;;22.72;67.81;100559.40;130544;1262;99145;-78
2023/08/18 13:53:30;;;;;;;4.00;3.00;;;;;;;22.65;68.28;100546.38;130545;1260;97960;-78
2023/08/18 13:56:35;;;;;;;3.60;2.90;;;;;;;22.47;69.23;100538.79;130485;1260;98053;-79
2023/08/18 13:59:41;;;;;;;4.00;3.20;;;;;;;22.13;70.55;100521.48;130504;1256;99144;-79
2023/08/18 14:02:46;;;;;;;3.20;2.60;;;;;;;21.89;70.36;100517.66;130498;1261;98630;-78
2023/08/18 14:05:53;;;;;;;4.00;2.90;;;;;;;21.79;70.34;100510.59;130566;1255;98777;-79
2023/08/18 14:09:00;;;;;;;3.50;3.10;;;;;;;21.83;71.45;100518.46;130479;1260;97954;-77
2023/08/18 14:12:14;;;;;;;4.20;3.10;;;;;;;21.63;74.20;100540.79;130581;1256;98053;-77
2023/08/18 14:22:17;;;;;;;3.40;2.40;;;;;;;21.25;73.43;100582.86;130453;1260;98464;-79
2023/08/18 14:25:39;;;;;;;3.40;2.80;;;;;;;21.42;73.31;100607.82;130494;1260;97958;-77